Silvero — SDAK — position and weather

sailwx.info

Track history (hours):
 
Tides and Currents Weather Stations Pressure Air Temp Water Temp Dewpoint Dewpoint Depression Visibility Wind Speed Wind Dir Waves Ship Positions

Silvero

Last reported at 2017-May-24 15:30 UTC. Time now 2017-May-24 15:48 UTC.
Position N 59°24' E 018°21'.

Length 22 m.

Type: Passenger vessel. MMSI: 265568520.

Date/timePositionNaut miles runAvg speedWind from/ knotsBaromVisibWave heightAir tempDewpointWater temp
2017-May-24 15:30N 59°24' E 018°21'1 1.9
2017-May-24 15:00N 59°24' E 018°23'2 2.2
2017-May-24 13:59N 59°22' E 018°26'3 5.2
2017-May-24 13:29N 59°24' E 018°22'0 0.3
2017-May-24 12:59N 59°24' E 018°23'0 0.7
2017-May-24 12:29N 59°24' E 018°22'0 0.3
2017-May-24 11:20N 59°24' E 018°22'1 2.3
2017-May-24 11:00N 59°25' E 018°21'1 1.2
2017-May-24 10:30N 59°24' E 018°21'1 1.9
2017-May-24 10:00N 59°24' E 018°23'1 1.7
2017-May-24 09:30N 59°24' E 018°21'0 0.1
2017-May-24 09:00N 59°24' E 018°21'0 0.0
2017-May-24 08:30N 59°24' E 018°21'0 0.0
2017-May-24 08:00N 59°24' E 018°21'1 2.8
2017-May-24 07:30N 59°23' E 018°24'2 3.8
2017-May-24 06:55N 59°22' E 018°26'3 7.5
2017-May-24 06:31N 59°24' E 018°22'0 0.9
2017-May-24 06:01N 59°24' E 018°21'0 0.7
2017-May-24 05:30N 59°24' E 018°21'0 0.0
2017-May-24 05:00N 59°24' E 018°21'0 0.9
2017-May-24 04:30N 59°25' E 018°22'0 0.9
2017-May-24 04:00N 59°24' E 018°21'0 0.0
2017-May-24 03:31N 59°24' E 018°21'0 0.0
2017-May-24 03:01N 59°24' E 018°21'0 0.0
2017-May-24 02:30N 59°24' E 018°21'0 0.0
2017-May-24 02:00N 59°24' E 018°21'0 0.0
2017-May-24 01:30N 59°24' E 018°21'0 0.0
2017-May-24 01:00N 59°24' E 018°21'0 0.0
2017-May-24 00:30N 59°24' E 018°21'0 0.0
2017-May-24 00:01N 59°24' E 018°21'0 0.0
2017-May-23 23:30N 59°24' E 018°21'0 0.0
2017-May-23 23:00N 59°24' E 018°21'0 0.0
2017-May-23 22:30N 59°24' E 018°21'0 0.0
2017-May-23 22:00N 59°24' E 018°21'0 0.0
2017-May-23 21:30N 59°24' E 018°21'0 0.0
2017-May-23 21:01N 59°24' E 018°21'0 0.0
2017-May-23 20:30N 59°24' E 018°21'0 0.0
2017-May-23 20:00N 59°24' E 018°21'0 0.0
2017-May-23 19:30N 59°24' E 018°21'0 0.0
2017-May-23 19:00N 59°24' E 018°21'0 0.0
2017-May-23 18:30N 59°24' E 018°21'0 0.0
2017-May-23 18:00N 59°24' E 018°21'0 0.0
2017-May-23 17:30N 59°24' E 018°21'0 0.0
2017-May-23 17:00N 59°24' E 018°21'0 0.0
2017-May-23 16:30N 59°24' E 018°21'0 0.2
2017-May-23 16:01N 59°24' E 018°21'1 1.2
2017-May-23 15:31N 59°24' E 018°22'1 1.3
2017-May-23 15:00N 59°24' E 018°21'1 1.2
2017-May-23 14:30N 59°24' E 018°22'0 0.2
2017-May-23 13:30N 59°24' E 018°23'1 2.0
2017-May-23 13:00N 59°23' E 018°25'1 1.9
2017-May-23 12:27N 59°23' E 018°26'2 5.4
2017-May-23 12:00N 59°24' E 018°22'0 0.8
2017-May-23 11:30N 59°24' E 018°21'1 1.6
2017-May-23 11:00N 59°25' E 018°22'1 1.6
2017-May-23 10:30N 59°24' E 018°21'1 3.0
2017-May-23 10:00N 59°23' E 018°24'1 3.0
2017-May-23 09:31N 59°24' E 018°21'0 0.6
2017-May-23 08:46N 59°24' E 018°22'0 0.8
2017-May-23 08:30N 59°24' E 018°22'0 0.3
2017-May-23 07:44N 59°24' E 018°21'1 6.0
2017-May-23 07:30N 59°23' E 018°24'2 3.7
2017-May-23 06:55N 59°22' E 018°26'3 7.4
2017-May-23 06:28N 59°24' E 018°22'1 2.9
2017-May-23 06:00N 59°23' E 018°24'1 3.0
2017-May-23 05:30N 59°24' E 018°21'0 0.0
2017-May-23 05:00N 59°24' E 018°21'0 0.8
2017-May-23 04:30N 59°24' E 018°22'0 0.8
2017-May-23 04:00N 59°24' E 018°21'0 0.0
2017-May-23 03:30N 59°24' E 018°21'0 0.0
2017-May-23 03:00N 59°24' E 018°21'0 0.0
2017-May-23 02:30N 59°24' E 018°21'0 0.0
2017-May-23 02:00N 59°24' E 018°21'0 0.0
2017-May-23 01:30N 59°24' E 018°21'0 0.0
2017-May-23 01:00N 59°24' E 018°21'0 0.0
2017-May-23 00:30N 59°24' E 018°21'0 0.0
2017-May-23 00:00N 59°24' E 018°21'0 0.0
2017-May-22 23:30N 59°24' E 018°21'0 0.0
2017-May-22 23:00N 59°24' E 018°21'0 0.0
2017-May-22 22:30N 59°24' E 018°21'0 0.0
2017-May-22 22:00N 59°24' E 018°21'0 0.0
2017-May-22 21:30N 59°24' E 018°21'0 0.0
2017-May-22 21:00N 59°24' E 018°21'0 0.0
2017-May-22 20:30N 59°24' E 018°21'0 0.0
2017-May-22 20:00N 59°24' E 018°21'0 0.0
2017-May-22 19:30N 59°24' E 018°21'0 0.0
2017-May-22 19:00N 59°24' E 018°21'0 0.0
2017-May-22 18:30N 59°24' E 018°21'0 0.0
2017-May-22 18:00N 59°24' E 018°21'0 0.0
2017-May-22 17:30N 59°24' E 018°21'0 0.0
2017-May-22 17:00N 59°24' E 018°21'0 0.0
2017-May-22 16:30N 59°24' E 018°21'1 1.8
2017-May-22 16:00N 59°25' E 018°21'1 2.7
2017-May-22 15:30N 59°24' E 018°22'1 1.4
2017-May-22 15:00N 59°24' E 018°21'0 0.0
2017-May-22 13:59N 59°24' E 018°21'1 1.4
2017-May-22 13:29N 59°24' E 018°22'1 2.1
2017-May-22 13:00N 59°23' E 018°24'1 1.4
2017-May-22 12:24N 59°23' E 018°26'2 4.7
2017-May-22 12:00N 59°24' E 018°22'1 1.3
2017-May-22 11:30N 59°24' E 018°21'1 1.3
2017-May-22 11:00N 59°25' E 018°22'1 1.4
2017-May-22 10:30N 59°24' E 018°21'1 2.4
2017-May-22 10:01N 59°24' E 018°23'1 2.4
2017-May-22 09:30N 59°24' E 018°21'0 0.0
2017-May-22 09:00N 59°24' E 018°21'0 0.0
2017-May-22 08:30N 59°24' E 018°21'0 0.0
2017-May-22 07:59N 59°24' E 018°21'2 3.2
2017-May-22 07:30N 59°23' E 018°24'2 3.9
2017-May-22 06:58N 59°22' E 018°26'3 6.7
2017-May-22 06:31N 59°24' E 018°22'1 1.5
2017-May-22 06:00N 59°24' E 018°23'1 2.6
2017-May-22 05:30N 59°25' E 018°22'1 1.2
2017-May-22 05:01N 59°24' E 018°21'0 0.7
2017-May-22 04:30N 59°24' E 018°21'0 0.6
2017-May-22 04:00N 59°24' E 018°21'0 0.0
2017-May-22 03:30N 59°24' E 018°21'0 0.0
2017-May-22 03:00N 59°24' E 018°21'0 0.0
2017-May-22 02:30N 59°24' E 018°21'0 0.0
2017-May-22 02:00N 59°24' E 018°21'0 0.0
2017-May-22 01:30N 59°24' E 018°21'0 0.0
2017-May-22 01:00N 59°24' E 018°21'0 0.0
2017-May-22 00:30N 59°24' E 018°21'0 0.0
2017-May-22 00:00N 59°24' E 018°21'0 0.0
2017-May-21 23:30N 59°24' E 018°21'0 0.0
2017-May-21 23:00N 59°24' E 018°21'0 0.0
2017-May-21 22:30N 59°24' E 018°21'0 0.0
2017-May-21 22:00N 59°24' E 018°21'0 0.0
2017-May-21 21:30N 59°24' E 018°21'0 0.0
2017-May-21 21:00N 59°24' E 018°21'0 0.0
2017-May-21 20:30N 59°24' E 018°21'0 0.0
2017-May-21 20:00N 59°24' E 018°21'0 0.0
2017-May-21 19:30N 59°24' E 018°21'0 0.0
2017-May-21 19:00N 59°24' E 018°21'0 0.0
2017-May-21 18:30N 59°24' E 018°21'0 0.0
2017-May-21 18:01N 59°24' E 018°21'2 4.4
2017-May-21 17:30N 59°23' E 018°25'0 0.7
2017-May-21 16:44N 59°23' E 018°25'2 9.7
2017-May-21 16:29N 59°24' E 018°22'0 0.4
2017-May-21 15:59N 59°24' E 018°21'0 0.0
2017-May-21 15:30N 59°24' E 018°21'0 0.0
2017-May-21 14:59N 59°24' E 018°21'2 3.4
2017-May-21 14:30N 59°23' E 018°24'1 0.6
2017-May-21 13:30N 59°23' E 018°24'1 1.1
2017-May-21 12:50N 59°23' E 018°26'3 7.9
2017-May-21 12:30N 59°24' E 018°21'0 0.1
2017-May-21 12:01N 59°24' E 018°21'0 1.0
2017-May-21 11:30N 59°25' E 018°21'1 2.7
2017-May-21 11:00N 59°24' E 018°23'1 1.1
2017-May-21 10:30N 59°24' E 018°22'0 1.0
2017-May-21 10:00N 59°24' E 018°21'2 4.9
2017-May-21 09:30N 59°23' E 018°26'1 1.7
2017-May-21 08:52N 59°22' E 018°26'2 4.9
2017-May-21 08:30N 59°23' E 018°24'2 3.9
2017-May-21 08:01N 59°25' E 018°21'1 1.2
2017-May-21 07:30N 59°24' E 018°21'0 0.0
2017-May-21 07:00N 59°24' E 018°21'1 2.2
2017-May-21 06:30N 59°24' E 018°23'1 2.1
2017-May-21 06:00N 59°24' E 018°21'0 0.0
2017-May-21 05:30N 59°24' E 018°21'0 0.0
2017-May-21 05:00N 59°24' E 018°21'0 0.0
2017-May-21 04:31N 59°24' E 018°21'0 0.0
2017-May-21 04:00N 59°24' E 018°21'0 0.0
2017-May-21 03:30N 59°24' E 018°21'0 0.0
2017-May-21 03:00N 59°24' E 018°21'0 0.0
2017-May-21 02:30N 59°24' E 018°21'0 0.0
2017-May-21 02:00N 59°24' E 018°21'0 0.0
2017-May-21 01:30N 59°24' E 018°21'0 0.0
2017-May-21 01:00N 59°24' E 018°21'0 0.0
2017-May-21 00:30N 59°24' E 018°21'0 0.0
2017-May-21 00:00N 59°24' E 018°21'0 0.0
2017-May-20 23:30N 59°24' E 018°21'0 0.0
2017-May-20 23:00N 59°24' E 018°21'0 0.0
2017-May-20 22:30N 59°24' E 018°21'0 0.0
2017-May-20 22:01N 59°24' E 018°21'0 0.0
2017-May-20 21:30N 59°24' E 018°21'0 0.0
2017-May-20 21:00N 59°24' E 018°21'0 0.0
2017-May-20 20:30N 59°24' E 018°21'0 0.0
2017-May-20 20:00N 59°24' E 018°21'0 0.0
2017-May-20 19:30N 59°24' E 018°21'0 0.0
2017-May-20 19:00N 59°24' E 018°21'0 0.0
2017-May-20 18:30N 59°24' E 018°21'0 0.0
2017-May-20 18:00N 59°24' E 018°21'0 0.0
2017-May-20 17:22N 59°24' E 018°21'0 0.0
2017-May-20 16:55N 59°24' E 018°21'0 1.1
2017-May-20 16:30N 59°25' E 018°22'0 0.9
2017-May-20 16:00N 59°24' E 018°21'1 2.4
2017-May-20 15:30N 59°23' E 018°23'2 2.6
2017-May-20 14:42N 59°22' E 018°26'1 3.9
2017-May-20 14:30N 59°23' E 018°26'3 2.8
2017-May-20 13:30N 59°25' E 018°22'1 1.4
2017-May-20 13:01N 59°24' E 018°21'0 0.0
2017-May-20 12:30N 59°24' E 018°21'0 0.0
2017-May-20 12:00N 59°24' E 018°21'0 0.7
2017-May-20 11:30N 59°24' E 018°21'0 0.7
2017-May-20 11:01N 59°24' E 018°21'0 0.0
2017-May-20 10:30N 59°24' E 018°21'5 9.1
2017-May-20 10:00N 59°27' E 018°28'0 0.8
2017-May-20 09:30N 59°27' E 018°28'4 7.9
2017-May-20 09:01N 59°25' E 018°22'1 1.6
2017-May-20 08:30N 59°24' E 018°21'2 4.2
2017-May-20 08:00N 59°23' E 018°25'2 0.4
2017-May-20 03:03N 59°24' E 018°21'0 0.0
2017-May-20 02:59N 59°24' E 018°21'0 0.0
2017-May-20 02:28N 59°24' E 018°21'0 0.0
2017-May-20 02:00N 59°24' E 018°21'0 0.0
2017-May-20 01:31N 59°24' E 018°21'0 0.0
2017-May-20 01:00N 59°24' E 018°21'0 0.0
2017-May-20 00:30N 59°24' E 018°21'0 0.0
2017-May-20 00:00N 59°24' E 018°21'0 0.0
2017-May-19 23:30N 59°24' E 018°21'0 0.0
2017-May-19 23:00N 59°24' E 018°21'0 0.0
2017-May-19 22:30N 59°24' E 018°21'0 0.0
2017-May-19 22:00N 59°24' E 018°21'0 0.0
2017-May-19 21:30N 59°24' E 018°21'0 0.0
2017-May-19 21:00N 59°24' E 018°21'0 0.0
2017-May-19 20:30N 59°24' E 018°21'0 0.0
2017-May-19 19:59N 59°24' E 018°21'0 0.0
2017-May-19 19:30N 59°24' E 018°21'0 0.0
2017-May-19 19:00N 59°24' E 018°21'0 0.0
2017-May-19 18:30N 59°24' E 018°21'0 0.0
2017-May-19 18:00N 59°24' E 018°21'0 0.0
2017-May-19 17:30N 59°24' E 018°21'0 0.6
2017-May-19 17:00N 59°24' E 018°22'1 2.4
2017-May-19 16:30N 59°23' E 018°24'2 3.4
2017-May-19 16:00N 59°24' E 018°21'0 0.1
2017-May-19 15:30N 59°24' E 018°22'1 2.9
2017-May-19 15:01N 59°23' E 018°24'2 2.0
2017-May-19 13:55N 59°22' E 018°27'3 6.5
2017-May-19 13:30N 59°24' E 018°23'2 3.0
2017-May-19 12:58N 59°23' E 018°26'2 3.6
2017-May-19 12:30N 59°24' E 018°23'1 1.5
2017-May-19 12:00N 59°24' E 018°21'0 0.0
2017-May-19 11:30N 59°24' E 018°21'1 1.4
2017-May-19 11:00N 59°25' E 018°22'1 1.4
2017-May-19 10:30N 59°24' E 018°21'2 4.4
2017-May-19 10:01N 59°23' E 018°25'2 4.3
2017-May-19 09:30N 59°24' E 018°21'0 0.0
2017-May-19 09:00N 59°24' E 018°21'0 0.0
2017-May-19 08:30N 59°24' E 018°21'0 0.0
2017-May-19 08:00N 59°24' E 018°21'2 3.6
2017-May-19 07:31N 59°23' E 018°24'2 3.7
2017-May-19 06:58N 59°22' E 018°26'3 7.1
2017-May-19 06:30N 59°24' E 018°22'1 1.4
2017-May-19 06:00N 59°24' E 018°23'1 1.5
2017-May-19 05:30N 59°24' E 018°22'0 0.4
2017-May-19 05:00N 59°24' E 018°21'1 1.6
2017-May-19 04:31N 59°25' E 018°22'1 1.6
2017-May-19 04:01N 59°24' E 018°21'0 0.0
2017-May-19 03:30N 59°24' E 018°21'0 0.0
2017-May-19 03:00N 59°24' E 018°21'0 0.0
2017-May-19 02:30N 59°24' E 018°21'0 0.0
2017-May-19 02:00N 59°24' E 018°21'0 0.0
2017-May-19 01:30N 59°24' E 018°21'0 0.0
2017-May-19 01:00N 59°24' E 018°21'0 0.0
2017-May-19 00:30N 59°24' E 018°21'0 0.0
2017-May-19 00:00N 59°24' E 018°21'0 0.0
2017-May-18 23:31N 59°24' E 018°21'0 0.0
2017-May-18 23:00N 59°24' E 018°21'0 0.0
2017-May-18 22:30N 59°24' E 018°21'0 0.0
2017-May-18 22:00N 59°24' E 018°21'0 0.0
2017-May-18 21:30N 59°24' E 018°21'0 0.0
2017-May-18 21:00N 59°24' E 018°21'0 0.0
2017-May-18 20:30N 59°24' E 018°21'0 0.0
2017-May-18 20:00N 59°24' E 018°21'0 0.0
2017-May-18 19:30N 59°24' E 018°21'0 0.0
2017-May-18 19:00N 59°24' E 018°21'0 0.0
2017-May-18 18:30N 59°24' E 018°21'0 0.0
2017-May-18 18:00N 59°24' E 018°21'0 0.0
2017-May-18 17:30N 59°24' E 018°21'0 0.0
2017-May-18 17:00N 59°24' E 018°21'0 0.0
2017-May-18 16:30N 59°24' E 018°21'1 1.3
2017-May-18 15:59N 59°25' E 018°22'1 2.6
2017-May-18 15:30N 59°24' E 018°23'1 2.2
2017-May-18 15:01N 59°24' E 018°21'0 0.0
2017-May-18 14:00N 59°24' E 018°21'0 0.9
2017-May-18 13:29N 59°24' E 018°22'2 4.8
2017-May-18 13:00N 59°23' E 018°26'0 0.6
2017-May-18 12:26N 59°23' E 018°26'3 5.8
2017-May-18 11:59N 59°24' E 018°22'0 0.5
2017-May-18 11:30N 59°24' E 018°21'1 1.3
2017-May-18 11:00N 59°25' E 018°21'1 1.2
2017-May-18 10:30N 59°24' E 018°21'1 2.3
2017-May-18 10:00N 59°24' E 018°23'1 2.3
2017-May-18 09:30N 59°24' E 018°21'0 0.0
2017-May-18 09:00N 59°24' E 018°21'0 0.2
2017-May-18 08:28N 59°24' E 018°21'0 0.2
2017-May-18 08:00N 59°24' E 018°21'2 3.6
2017-May-18 07:30N 59°23' E 018°25'1 1.2
2017-May-18 06:48N 59°23' E 018°26'2 8.0
2017-May-18 06:30N 59°24' E 018°22'1 2.0
2017-May-18 06:00N 59°24' E 018°23'1 2.2
2017-May-18 05:31N 59°24' E 018°21'0 0.0
2017-May-18 05:00N 59°24' E 018°21'1 1.6
2017-May-18 04:30N 59°25' E 018°22'1 1.6
2017-May-18 04:00N 59°24' E 018°21'0 0.0
2017-May-18 03:30N 59°24' E 018°21'0 0.0
2017-May-18 03:00N 59°24' E 018°21'0 0.0
2017-May-18 02:30N 59°24' E 018°21'0 0.0
2017-May-18 02:00N 59°24' E 018°21'0 0.0
2017-May-18 01:30N 59°24' E 018°21'0 0.0
2017-May-18 01:00N 59°24' E 018°21'0 0.0
2017-May-18 00:30N 59°24' E 018°21'0 0.0
2017-May-18 00:00N 59°24' E 018°21'0 0.0
2017-May-17 23:30N 59°24' E 018°21'0 0.0
2017-May-17 23:00N 59°24' E 018°21'0 0.0
2017-May-17 22:30N 59°24' E 018°21'0 0.0
2017-May-17 22:00N 59°24' E 018°21'0 0.0
2017-May-17 21:30N 59°24' E 018°21'0 0.0
2017-May-17 21:00N 59°24' E 018°21'0 0.0
2017-May-17 20:30N 59°24' E 018°21'0 0.0
2017-May-17 20:00N 59°24' E 018°21'0 0.0
2017-May-17 19:30N 59°24' E 018°21'0 0.0
2017-May-17 19:00N 59°24' E 018°21'0 0.0
2017-May-17 18:30N 59°24' E 018°21'0 0.0
2017-May-17 18:00N 59°24' E 018°21'0 0.0
2017-May-17 17:30N 59°24' E 018°21'0 0.0
2017-May-17 17:00N 59°24' E 018°21'0 0.0
2017-May-17 16:30N 59°24' E 018°21'1 1.6
2017-May-17 16:00N 59°25' E 018°22'2 3.0
2017-May-17 15:29N 59°23' E 018°24'1 2.8
2017-May-17 15:01N 59°24' E 018°21'0 0.0
2017-May-17 14:00N 59°24' E 018°21'1 1.3
2017-May-17 13:30N 59°24' E 018°22'1 1.8
2017-May-17 13:00N 59°23' E 018°24'2 3.5
2017-May-17 12:30N 59°22' E 018°26'3 5.6
2017-May-17 12:00N 59°24' E 018°22'0 1.0
2017-May-17 11:30N 59°24' E 018°21'1 1.4
2017-May-17 11:00N 59°25' E 018°22'1 1.4
2017-May-17 10:30N 59°24' E 018°21'1 1.8
2017-May-17 10:00N 59°24' E 018°23'1 1.7
2017-May-17 09:30N 59°24' E 018°21'0 0.1
2017-May-17 09:00N 59°24' E 018°21'0 0.0
2017-May-17 08:30N 59°24' E 018°21'0 0.0
2017-May-17 08:00N 59°24' E 018°21'3 6.4
2017-May-17 07:28N 59°22' E 018°27'0 0.4
2017-May-17 07:00N 59°22' E 018°26'3 6.9
2017-May-17 06:31N 59°24' E 018°21'1 1.8
2017-May-17 06:00N 59°24' E 018°23'1 1.8
2017-May-17 05:31N 59°24' E 018°21'0 0.0
2017-May-17 05:00N 59°24' E 018°21'1 1.4
2017-May-17 04:30N 59°25' E 018°22'1 1.3
2017-May-17 04:00N 59°24' E 018°21'0 0.0
2017-May-17 03:30N 59°24' E 018°21'0 0.0
2017-May-17 03:00N 59°24' E 018°21'0 0.0
2017-May-17 02:30N 59°24' E 018°21'0 0.0
2017-May-17 02:00N 59°24' E 018°21'0 0.0
2017-May-17 01:30N 59°24' E 018°21'0 0.0
2017-May-17 01:00N 59°24' E 018°21'0 0.0
2017-May-17 00:30N 59°24' E 018°21'0 0.0
2017-May-17 00:00N 59°24' E 018°21'0 0.0
2017-May-16 23:30N 59°24' E 018°21'0 0.0
2017-May-16 23:00N 59°24' E 018°21'0 0.0
2017-May-16 22:30N 59°24' E 018°21'0 0.0
2017-May-16 22:00N 59°24' E 018°21'0 0.0
2017-May-16 21:30N 59°24' E 018°21'0 0.0
2017-May-16 21:00N 59°24' E 018°21'0 0.0
2017-May-16 20:30N 59°24' E 018°21'0 0.0
2017-May-16 20:00N 59°24' E 018°21'0 0.0
2017-May-16 19:30N 59°24' E 018°21'0 0.0
2017-May-16 19:00N 59°24' E 018°21'0 0.0
2017-May-16 18:30N 59°24' E 018°21'0 0.0
2017-May-16 18:00N 59°24' E 018°21'0 0.0
2017-May-16 17:30N 59°24' E 018°21'0 0.0
2017-May-16 17:00N 59°24' E 018°21'0 0.0
2017-May-16 16:30N 59°24' E 018°21'1 0.5
2017-May-16 15:15N 59°24' E 018°22'1 2.3
2017-May-16 15:00N 59°24' E 018°21'0 0.0
2017-May-16 14:00N 59°24' E 018°21'0 1.0
2017-May-16 13:30N 59°24' E 018°22'1 2.0
2017-May-16 13:01N 59°23' E 018°24'1 1.7
2017-May-16 12:24N 59°23' E 018°26'2 4.5
2017-May-16 12:00N 59°24' E 018°22'1 1.3
2017-May-16 11:30N 59°24' E 018°21'1 1.4
2017-May-16 11:00N 59°25' E 018°22'1 1.4
2017-May-16 10:30N 59°24' E 018°21'1 2.8
2017-May-16 10:00N 59°23' E 018°24'1 2.8
2017-May-16 09:30N 59°24' E 018°21'0 0.1
2017-May-16 09:00N 59°24' E 018°21'0 0.0
2017-May-16 08:30N 59°24' E 018°21'0 0.0
2017-May-16 07:59N 59°24' E 018°21'2 3.2
2017-May-16 07:30N 59°23' E 018°24'2 3.7
2017-May-16 06:57N 59°22' E 018°25'3 6.9
2017-May-16 06:30N 59°24' E 018°22'1 1.3
2017-May-16 06:00N 59°24' E 018°23'1 1.7
2017-May-16 05:30N 59°24' E 018°21'0 0.1
2017-May-16 05:00N 59°24' E 018°21'1 1.0
2017-May-16 04:30N 59°25' E 018°22'1 1.0
2017-May-16 04:00N 59°24' E 018°21'0 0.0
2017-May-16 03:30N 59°24' E 018°21'0 0.0
2017-May-16 03:00N 59°24' E 018°21'0 0.0
2017-May-16 02:30N 59°24' E 018°21'0 0.0
2017-May-16 02:00N 59°24' E 018°21'0 0.0
2017-May-16 01:30N 59°24' E 018°21'0 0.0
2017-May-16 01:00N 59°24' E 018°21'0 0.0
2017-May-16 00:30N 59°24' E 018°21'0 0.0
2017-May-16 00:00N 59°24' E 018°21'0 0.0
2017-May-15 23:30N 59°24' E 018°21'0 0.0
2017-May-15 23:00N 59°24' E 018°21'0 0.0
2017-May-15 22:30N 59°24' E 018°21'0 0.0
2017-May-15 22:00N 59°24' E 018°21'0 0.0
2017-May-15 21:30N 59°24' E 018°21'0 0.0
2017-May-15 21:00N 59°24' E 018°21'0 0.0
2017-May-15 20:30N 59°24' E 018°21'0 0.0
2017-May-15 20:00N 59°24' E 018°21'0 0.0
2017-May-15 19:30N 59°24' E 018°21'0 0.0
2017-May-15 19:00N 59°24' E 018°21'0 0.0
2017-May-15 18:30N 59°24' E 018°21'0 0.0
2017-May-15 18:00N 59°24' E 018°21'0 0.0
2017-May-15 17:30N 59°24' E 018°21'0 0.0
2017-May-15 17:00N 59°24' E 018°21'0 0.0
2017-May-15 16:30N 59°24' E 018°21'1 2.5
2017-May-15 15:59N 59°25' E 018°21'2 3.8
2017-May-15 15:30N 59°24' E 018°23'1 1.6
2017-May-15 15:00N 59°24' E 018°21'0 0.0
2017-May-15 14:00N 59°24' E 018°21'1 1.7
2017-May-15 13:30N 59°24' E 018°23'0 0.9
2017-May-15 13:00N 59°23' E 018°23'2 3.7
2017-May-15 12:25N 59°22' E 018°26'3 6.6
2017-May-15 12:00N 59°24' E 018°22'1 1.3
2017-May-15 11:30N 59°24' E 018°21'1 1.4
2017-May-15 11:00N 59°25' E 018°22'1 1.4
2017-May-15 10:30N 59°24' E 018°21'1 1.7
2017-May-15 10:00N 59°24' E 018°23'1 1.6
2017-May-15 09:30N 59°24' E 018°21'0 0.1
2017-May-15 09:00N 59°24' E 018°21'0 0.0
2017-May-15 08:30N 59°24' E 018°21'0 0.0
2017-May-15 08:00N 59°24' E 018°21'1 2.8
2017-May-15 07:30N 59°23' E 018°24'2 3.9
2017-May-15 06:57N 59°22' E 018°26'3 7.9
2017-May-15 06:30N 59°24' E 018°21'1 2.5
2017-May-15 06:00N 59°23' E 018°24'1 2.6
2017-May-15 05:30N 59°24' E 018°21'0 0.0
2017-May-15 05:00N 59°24' E 018°21'0 0.9
2017-May-15 04:30N 59°24' E 018°22'0 0.8
2017-May-15 04:00N 59°24' E 018°21'0 0.0
2017-May-15 03:31N 59°24' E 018°21'0 0.0
2017-May-15 03:00N 59°24' E 018°21'0 0.0
2017-May-15 02:30N 59°24' E 018°21'0 0.0
2017-May-15 02:01N 59°24' E 018°21'0 0.0
2017-May-15 01:30N 59°24' E 018°21'0 0.0
2017-May-15 01:00N 59°24' E 018°21'0 0.0
2017-May-15 00:30N 59°24' E 018°21'0 0.0
2017-May-15 00:00N 59°24' E 018°21'0 0.0
2017-May-14 23:31N 59°24' E 018°21'0 0.0
2017-May-14 23:00N 59°24' E 018°21'0 0.0
2017-May-14 22:31N 59°24' E 018°21'0 0.0
2017-May-14 22:00N 59°24' E 018°21'0 0.0
2017-May-14 21:30N 59°24' E 018°21'0 0.0
2017-May-14 21:01N 59°24' E 018°21'0 0.0
2017-May-14 20:30N 59°24' E 018°21'0 0.0
2017-May-14 20:00N 59°24' E 018°21'0 0.0
2017-May-14 19:30N 59°24' E 018°21'0 0.0
2017-May-14 19:00N 59°24' E 018°21'0 0.0
2017-May-14 18:30N 59°24' E 018°21'0 0.0
2017-May-14 18:00N 59°24' E 018°21'2 4.1
2017-May-14 17:29N 59°23' E 018°25'1 2.2
2017-May-14 16:52N 59°22' E 018°26'3 7.3
2017-May-14 16:30N 59°24' E 018°23'1 2.2
2017-May-14 16:01N 59°25' E 018°22'  
Track history (hours):
 
Tides and Currents Weather Stations Pressure Air Temp Water Temp Dewpoint Dewpoint Depression Visibility Wind Speed Wind Dir Waves Ship Positions

Silvero

Last reported at 2017-May-24 15:30 UTC. Time now 2017-May-24 15:48 UTC.
Position N 59°24' E 018°21'.

Length 22 m.

Type: Passenger vessel. MMSI: 265568520.

Date/timePositionNaut miles runAvg speedWind from/ knotsBaromVisibWave heightAir tempDewpointWater temp
2017-May-24 15:30N 59°24' E 018°21'1 1.9
2017-May-24 15:00N 59°24' E 018°23'2 2.2
2017-May-24 13:59N 59°22' E 018°26'3 5.2
2017-May-24 13:29N 59°24' E 018°22'0 0.3
2017-May-24 12:59N 59°24' E 018°23'0 0.7
2017-May-24 12:29N 59°24' E 018°22'0 0.3
2017-May-24 11:20N 59°24' E 018°22'1 2.3
2017-May-24 11:00N 59°25' E 018°21'1 1.2
2017-May-24 10:30N 59°24' E 018°21'1 1.9
2017-May-24 10:00N 59°24' E 018°23'1 1.7
2017-May-24 09:30N 59°24' E 018°21'0 0.1
2017-May-24 09:00N 59°24' E 018°21'0 0.0
2017-May-24 08:30N 59°24' E 018°21'0 0.0
2017-May-24 08:00N 59°24' E 018°21'1 2.8
2017-May-24 07:30N 59°23' E 018°24'2 3.8
2017-May-24 06:55N 59°22' E 018°26'3 7.5
2017-May-24 06:31N 59°24' E 018°22'0 0.9
2017-May-24 06:01N 59°24' E 018°21'0 0.7
2017-May-24 05:30N 59°24' E 018°21'0 0.0
2017-May-24 05:00N 59°24' E 018°21'0 0.9
2017-May-24 04:30N 59°25' E 018°22'0 0.9
2017-May-24 04:00N 59°24' E 018°21'0 0.0
2017-May-24 03:31N 59°24' E 018°21'0 0.0
2017-May-24 03:01N 59°24' E 018°21'0 0.0
2017-May-24 02:30N 59°24' E 018°21'0 0.0
2017-May-24 02:00N 59°24' E 018°21'0 0.0
2017-May-24 01:30N 59°24' E 018°21'0 0.0
2017-May-24 01:00N 59°24' E 018°21'0 0.0
2017-May-24 00:30N 59°24' E 018°21'0 0.0
2017-May-24 00:01N 59°24' E 018°21'0 0.0
2017-May-23 23:30N 59°24' E 018°21'0 0.0
2017-May-23 23:00N 59°24' E 018°21'0 0.0
2017-May-23 22:30N 59°24' E 018°21'0 0.0
2017-May-23 22:00N 59°24' E 018°21'0 0.0
2017-May-23 21:30N 59°24' E 018°21'0 0.0
2017-May-23 21:01N 59°24' E 018°21'0 0.0
2017-May-23 20:30N 59°24' E 018°21'0 0.0
2017-May-23 20:00N 59°24' E 018°21'0 0.0
2017-May-23 19:30N 59°24' E 018°21'0 0.0
2017-May-23 19:00N 59°24' E 018°21'0 0.0
2017-May-23 18:30N 59°24' E 018°21'0 0.0
2017-May-23 18:00N 59°24' E 018°21'0 0.0
2017-May-23 17:30N 59°24' E 018°21'0 0.0
2017-May-23 17:00N 59°24' E 018°21'0 0.0
2017-May-23 16:30N 59°24' E 018°21'0 0.2
2017-May-23 16:01N 59°24' E 018°21'1 1.2
2017-May-23 15:31N 59°24' E 018°22'1 1.3
2017-May-23 15:00N 59°24' E 018°21'1 1.2
2017-May-23 14:30N 59°24' E 018°22'0 0.2
2017-May-23 13:30N 59°24' E 018°23'1 2.0
2017-May-23 13:00N 59°23' E 018°25'1 1.9
2017-May-23 12:27N 59°23' E 018°26'2 5.4
2017-May-23 12:00N 59°24' E 018°22'0 0.8
2017-May-23 11:30N 59°24' E 018°21'1 1.6
2017-May-23 11:00N 59°25' E 018°22'1 1.6
2017-May-23 10:30N 59°24' E 018°21'1 3.0
2017-May-23 10:00N 59°23' E 018°24'1 3.0
2017-May-23 09:31N 59°24' E 018°21'0 0.6
2017-May-23 08:46N 59°24' E 018°22'0 0.8
2017-May-23 08:30N 59°24' E 018°22'0 0.3
2017-May-23 07:44N 59°24' E 018°21'1 6.0
2017-May-23 07:30N 59°23' E 018°24'2 3.7
2017-May-23 06:55N 59°22' E 018°26'3 7.4
2017-May-23 06:28N 59°24' E 018°22'1 2.9
2017-May-23 06:00N 59°23' E 018°24'1 3.0
2017-May-23 05:30N 59°24' E 018°21'0 0.0
2017-May-23 05:00N 59°24' E 018°21'0 0.8
2017-May-23 04:30N 59°24' E 018°22'0 0.8
2017-May-23 04:00N 59°24' E 018°21'0 0.0
2017-May-23 03:30N 59°24' E 018°21'0 0.0
2017-May-23 03:00N 59°24' E 018°21'0 0.0
2017-May-23 02:30N 59°24' E 018°21'0 0.0
2017-May-23 02:00N 59°24' E 018°21'0 0.0
2017-May-23 01:30N 59°24' E 018°21'0 0.0
2017-May-23 01:00N 59°24' E 018°21'0 0.0
2017-May-23 00:30N 59°24' E 018°21'0 0.0
2017-May-23 00:00N 59°24' E 018°21'0 0.0
2017-May-22 23:30N 59°24' E 018°21'0 0.0
2017-May-22 23:00N 59°24' E 018°21'0 0.0
2017-May-22 22:30N 59°24' E 018°21'0 0.0
2017-May-22 22:00N 59°24' E 018°21'0 0.0
2017-May-22 21:30N 59°24' E 018°21'0 0.0
2017-May-22 21:00N 59°24' E 018°21'0 0.0
2017-May-22 20:30N 59°24' E 018°21'0 0.0
2017-May-22 20:00N 59°24' E 018°21'0 0.0
2017-May-22 19:30N 59°24' E 018°21'0 0.0
2017-May-22 19:00N 59°24' E 018°21'0 0.0
2017-May-22 18:30N 59°24' E 018°21'0 0.0
2017-May-22 18:00N 59°24' E 018°21'0 0.0
2017-May-22 17:30N 59°24' E 018°21'0 0.0
2017-May-22 17:00N 59°24' E 018°21'0 0.0
2017-May-22 16:30N 59°24' E 018°21'1 1.8
2017-May-22 16:00N 59°25' E 018°21'1 2.7
2017-May-22 15:30N 59°24' E 018°22'1 1.4
2017-May-22 15:00N 59°24' E 018°21'0 0.0
2017-May-22 13:59N 59°24' E 018°21'1 1.4
2017-May-22 13:29N 59°24' E 018°22'1 2.1
2017-May-22 13:00N 59°23' E 018°24'1 1.4
2017-May-22 12:24N 59°23' E 018°26'2 4.7
2017-May-22 12:00N 59°24' E 018°22'1 1.3
2017-May-22 11:30N 59°24' E 018°21'1 1.3
2017-May-22 11:00N 59°25' E 018°22'1 1.4
2017-May-22 10:30N 59°24' E 018°21'1 2.4
2017-May-22 10:01N 59°24' E 018°23'1 2.4
2017-May-22 09:30N 59°24' E 018°21'0 0.0
2017-May-22 09:00N 59°24' E 018°21'0 0.0
2017-May-22 08:30N 59°24' E 018°21'0 0.0
2017-May-22 07:59N 59°24' E 018°21'2 3.2
2017-May-22 07:30N 59°23' E 018°24'2 3.9
2017-May-22 06:58N 59°22' E 018°26'3 6.7
2017-May-22 06:31N 59°24' E 018°22'1 1.5
2017-May-22 06:00N 59°24' E 018°23'1 2.6
2017-May-22 05:30N 59°25' E 018°22'1 1.2
2017-May-22 05:01N 59°24' E 018°21'0 0.7
2017-May-22 04:30N 59°24' E 018°21'0 0.6
2017-May-22 04:00N 59°24' E 018°21'0 0.0
2017-May-22 03:30N 59°24' E 018°21'0 0.0
2017-May-22 03:00N 59°24' E 018°21'0 0.0
2017-May-22 02:30N 59°24' E 018°21'0 0.0
2017-May-22 02:00N 59°24' E 018°21'0 0.0
2017-May-22 01:30N 59°24' E 018°21'0 0.0
2017-May-22 01:00N 59°24' E 018°21'0 0.0
2017-May-22 00:30N 59°24' E 018°21'0 0.0
2017-May-22 00:00N 59°24' E 018°21'0 0.0
2017-May-21 23:30N 59°24' E 018°21'0 0.0
2017-May-21 23:00N 59°24' E 018°21'0 0.0
2017-May-21 22:30N 59°24' E 018°21'0 0.0
2017-May-21 22:00N 59°24' E 018°21'0 0.0
2017-May-21 21:30N 59°24' E 018°21'0 0.0
2017-May-21 21:00N 59°24' E 018°21'0 0.0
2017-May-21 20:30N 59°24' E 018°21'0 0.0
2017-May-21 20:00N 59°24' E 018°21'0 0.0
2017-May-21 19:30N 59°24' E 018°21'0 0.0
2017-May-21 19:00N 59°24' E 018°21'0 0.0
2017-May-21 18:30N 59°24' E 018°21'0 0.0
2017-May-21 18:01N 59°24' E 018°21'2 4.4
2017-May-21 17:30N 59°23' E 018°25'0 0.7
2017-May-21 16:44N 59°23' E 018°25'2 9.7
2017-May-21 16:29N 59°24' E 018°22'0 0.4
2017-May-21 15:59N 59°24' E 018°21'0 0.0
2017-May-21 15:30N 59°24' E 018°21'0 0.0
2017-May-21 14:59N 59°24' E 018°21'2 3.4
2017-May-21 14:30N 59°23' E 018°24'1 0.6
2017-May-21 13:30N 59°23' E 018°24'1 1.1
2017-May-21 12:50N 59°23' E 018°26'3 7.9
2017-May-21 12:30N 59°24' E 018°21'0 0.1
2017-May-21 12:01N 59°24' E 018°21'0 1.0
2017-May-21 11:30N 59°25' E 018°21'1 2.7
2017-May-21 11:00N 59°24' E 018°23'1 1.1
2017-May-21 10:30N 59°24' E 018°22'0 1.0
2017-May-21 10:00N 59°24' E 018°21'2 4.9
2017-May-21 09:30N 59°23' E 018°26'1 1.7
2017-May-21 08:52N 59°22' E 018°26'2 4.9
2017-May-21 08:30N 59°23' E 018°24'2 3.9
2017-May-21 08:01N 59°25' E 018°21'1 1.2
2017-May-21 07:30N 59°24' E 018°21'0 0.0
2017-May-21 07:00N 59°24' E 018°21'1 2.2
2017-May-21 06:30N 59°24' E 018°23'1 2.1
2017-May-21 06:00N 59°24' E 018°21'0 0.0
2017-May-21 05:30N 59°24' E 018°21'0 0.0
2017-May-21 05:00N 59°24' E 018°21'0 0.0
2017-May-21 04:31N 59°24' E 018°21'0 0.0
2017-May-21 04:00N 59°24' E 018°21'0 0.0
2017-May-21 03:30N 59°24' E 018°21'0 0.0
2017-May-21 03:00N 59°24' E 018°21'0 0.0
2017-May-21 02:30N 59°24' E 018°21'0 0.0
2017-May-21 02:00N 59°24' E 018°21'0 0.0
2017-May-21 01:30N 59°24' E 018°21'0 0.0
2017-May-21 01:00N 59°24' E 018°21'0 0.0
2017-May-21 00:30N 59°24' E 018°21'0 0.0
2017-May-21 00:00N 59°24' E 018°21'0 0.0
2017-May-20 23:30N 59°24' E 018°21'0 0.0
2017-May-20 23:00N 59°24' E 018°21'0 0.0
2017-May-20 22:30N 59°24' E 018°21'0 0.0
2017-May-20 22:01N 59°24' E 018°21'0 0.0
2017-May-20 21:30N 59°24' E 018°21'0 0.0
2017-May-20 21:00N 59°24' E 018°21'0 0.0
2017-May-20 20:30N 59°24' E 018°21'0 0.0
2017-May-20 20:00N 59°24' E 018°21'0 0.0
2017-May-20 19:30N 59°24' E 018°21'0 0.0
2017-May-20 19:00N 59°24' E 018°21'0 0.0
2017-May-20 18:30N 59°24' E 018°21'0 0.0
2017-May-20 18:00N 59°24' E 018°21'0 0.0
2017-May-20 17:22N 59°24' E 018°21'0 0.0
2017-May-20 16:55N 59°24' E 018°21'0 1.1
2017-May-20 16:30N 59°25' E 018°22'0 0.9
2017-May-20 16:00N 59°24' E 018°21'1 2.4
2017-May-20 15:30N 59°23' E 018°23'2 2.6
2017-May-20 14:42N 59°22' E 018°26'1 3.9
2017-May-20 14:30N 59°23' E 018°26'3 2.8
2017-May-20 13:30N 59°25' E 018°22'1 1.4
2017-May-20 13:01N 59°24' E 018°21'0 0.0
2017-May-20 12:30N 59°24' E 018°21'0 0.0
2017-May-20 12:00N 59°24' E 018°21'0 0.7
2017-May-20 11:30N 59°24' E 018°21'0 0.7
2017-May-20 11:01N 59°24' E 018°21'0 0.0
2017-May-20 10:30N 59°24' E 018°21'5 9.1
2017-May-20 10:00N 59°27' E 018°28'0 0.8
2017-May-20 09:30N 59°27' E 018°28'4 7.9
2017-May-20 09:01N 59°25' E 018°22'1 1.6
2017-May-20 08:30N 59°24' E 018°21'2 4.2
2017-May-20 08:00N 59°23' E 018°25'2 0.4
2017-May-20 03:03N 59°24' E 018°21'0 0.0
2017-May-20 02:59N 59°24' E 018°21'0 0.0
2017-May-20 02:28N 59°24' E 018°21'0 0.0
2017-May-20 02:00N 59°24' E 018°21'0 0.0
2017-May-20 01:31N 59°24' E 018°21'0 0.0
2017-May-20 01:00N 59°24' E 018°21'0 0.0
2017-May-20 00:30N 59°24' E 018°21'0 0.0
2017-May-20 00:00N 59°24' E 018°21'0 0.0
2017-May-19 23:30N 59°24' E 018°21'0 0.0
2017-May-19 23:00N 59°24' E 018°21'0 0.0
2017-May-19 22:30N 59°24' E 018°21'0 0.0
2017-May-19 22:00N 59°24' E 018°21'0 0.0
2017-May-19 21:30N 59°24' E 018°21'0 0.0
2017-May-19 21:00N 59°24' E 018°21'0 0.0
2017-May-19 20:30N 59°24' E 018°21'0 0.0
2017-May-19 19:59N 59°24' E 018°21'0 0.0
2017-May-19 19:30N 59°24' E 018°21'0 0.0
2017-May-19 19:00N 59°24' E 018°21'0 0.0
2017-May-19 18:30N 59°24' E 018°21'0 0.0
2017-May-19 18:00N 59°24' E 018°21'0 0.0
2017-May-19 17:30N 59°24' E 018°21'0 0.6
2017-May-19 17:00N 59°24' E 018°22'1 2.4
2017-May-19 16:30N 59°23' E 018°24'2 3.4
2017-May-19 16:00N 59°24' E 018°21'0 0.1
2017-May-19 15:30N 59°24' E 018°22'1 2.9
2017-May-19 15:01N 59°23' E 018°24'2 2.0
2017-May-19 13:55N 59°22' E 018°27'3 6.5
2017-May-19 13:30N 59°24' E 018°23'2 3.0
2017-May-19 12:58N 59°23' E 018°26'2 3.6
2017-May-19 12:30N 59°24' E 018°23'1 1.5
2017-May-19 12:00N 59°24' E 018°21'0 0.0
2017-May-19 11:30N 59°24' E 018°21'1 1.4
2017-May-19 11:00N 59°25' E 018°22'1 1.4
2017-May-19 10:30N 59°24' E 018°21'2 4.4
2017-May-19 10:01N 59°23' E 018°25'2 4.3
2017-May-19 09:30N 59°24' E 018°21'0 0.0
2017-May-19 09:00N 59°24' E 018°21'0 0.0
2017-May-19 08:30N 59°24' E 018°21'0 0.0
2017-May-19 08:00N 59°24' E 018°21'2 3.6
2017-May-19 07:31N 59°23' E 018°24'2 3.7
2017-May-19 06:58N 59°22' E 018°26'3 7.1
2017-May-19 06:30N 59°24' E 018°22'1 1.4
2017-May-19 06:00N 59°24' E 018°23'1 1.5
2017-May-19 05:30N 59°24' E 018°22'0 0.4
2017-May-19 05:00N 59°24' E 018°21'1 1.6
2017-May-19 04:31N 59°25' E 018°22'1 1.6
2017-May-19 04:01N 59°24' E 018°21'0 0.0
2017-May-19 03:30N 59°24' E 018°21'0 0.0
2017-May-19 03:00N 59°24' E 018°21'0 0.0
2017-May-19 02:30N 59°24' E 018°21'0 0.0
2017-May-19 02:00N 59°24' E 018°21'0 0.0
2017-May-19 01:30N 59°24' E 018°21'0 0.0
2017-May-19 01:00N 59°24' E 018°21'0 0.0
2017-May-19 00:30N 59°24' E 018°21'0 0.0
2017-May-19 00:00N 59°24' E 018°21'0 0.0
2017-May-18 23:31N 59°24' E 018°21'0 0.0
2017-May-18 23:00N 59°24' E 018°21'0 0.0
2017-May-18 22:30N 59°24' E 018°21'0 0.0
2017-May-18 22:00N 59°24' E 018°21'0 0.0
2017-May-18 21:30N 59°24' E 018°21'0 0.0
2017-May-18 21:00N 59°24' E 018°21'0 0.0
2017-May-18 20:30N 59°24' E 018°21'0 0.0
2017-May-18 20:00N 59°24' E 018°21'0 0.0
2017-May-18 19:30N 59°24' E 018°21'0 0.0
2017-May-18 19:00N 59°24' E 018°21'0 0.0
2017-May-18 18:30N 59°24' E 018°21'0 0.0
2017-May-18 18:00N 59°24' E 018°21'0 0.0
2017-May-18 17:30N 59°24' E 018°21'0 0.0
2017-May-18 17:00N 59°24' E 018°21'0 0.0
2017-May-18 16:30N 59°24' E 018°21'1 1.3
2017-May-18 15:59N 59°25' E 018°22'1 2.6
2017-May-18 15:30N 59°24' E 018°23'1 2.2
2017-May-18 15:01N 59°24' E 018°21'0 0.0
2017-May-18 14:00N 59°24' E 018°21'0 0.9
2017-May-18 13:29N 59°24' E 018°22'2 4.8
2017-May-18 13:00N 59°23' E 018°26'0 0.6
2017-May-18 12:26N 59°23' E 018°26'3 5.8
2017-May-18 11:59N 59°24' E 018°22'0 0.5
2017-May-18 11:30N 59°24' E 018°21'1 1.3
2017-May-18 11:00N 59°25' E 018°21'1 1.2
2017-May-18 10:30N 59°24' E 018°21'1 2.3
2017-May-18 10:00N 59°24' E 018°23'1 2.3
2017-May-18 09:30N 59°24' E 018°21'0 0.0
2017-May-18 09:00N 59°24' E 018°21'0 0.2
2017-May-18 08:28N 59°24' E 018°21'0 0.2
2017-May-18 08:00N 59°24' E 018°21'2 3.6
2017-May-18 07:30N 59°23' E 018°25'1 1.2
2017-May-18 06:48N 59°23' E 018°26'2 8.0
2017-May-18 06:30N 59°24' E 018°22'1 2.0
2017-May-18 06:00N 59°24' E 018°23'1 2.2
2017-May-18 05:31N 59°24' E 018°21'0 0.0
2017-May-18 05:00N 59°24' E 018°21'1 1.6
2017-May-18 04:30N 59°25' E 018°22'1 1.6
2017-May-18 04:00N 59°24' E 018°21'0 0.0
2017-May-18 03:30N 59°24' E 018°21'0 0.0
2017-May-18 03:00N 59°24' E 018°21'0 0.0
2017-May-18 02:30N 59°24' E 018°21'0 0.0
2017-May-18 02:00N 59°24' E 018°21'0 0.0
2017-May-18 01:30N 59°24' E 018°21'0 0.0
2017-May-18 01:00N 59°24' E 018°21'0 0.0
2017-May-18 00:30N 59°24' E 018°21'0 0.0
2017-May-18 00:00N 59°24' E 018°21'0 0.0
2017-May-17 23:30N 59°24' E 018°21'0 0.0
2017-May-17 23:00N 59°24' E 018°21'0 0.0
2017-May-17 22:30N 59°24' E 018°21'0 0.0
2017-May-17 22:00N 59°24' E 018°21'0 0.0
2017-May-17 21:30N 59°24' E 018°21'0 0.0
2017-May-17 21:00N 59°24' E 018°21'0 0.0
2017-May-17 20:30N 59°24' E 018°21'0 0.0
2017-May-17 20:00N 59°24' E 018°21'0 0.0
2017-May-17 19:30N 59°24' E 018°21'0 0.0
2017-May-17 19:00N 59°24' E 018°21'0 0.0
2017-May-17 18:30N 59°24' E 018°21'0 0.0
2017-May-17 18:00N 59°24' E 018°21'0 0.0
2017-May-17 17:30N 59°24' E 018°21'0 0.0
2017-May-17 17:00N 59°24' E 018°21'0 0.0
2017-May-17 16:30N 59°24' E 018°21'1 1.6
2017-May-17 16:00N 59°25' E 018°22'2 3.0
2017-May-17 15:29N 59°23' E 018°24'1 2.8
2017-May-17 15:01N 59°24' E 018°21'0 0.0
2017-May-17 14:00N 59°24' E 018°21'1 1.3
2017-May-17 13:30N 59°24' E 018°22'1 1.8
2017-May-17 13:00N 59°23' E 018°24'2 3.5
2017-May-17 12:30N 59°22' E 018°26'3 5.6
2017-May-17 12:00N 59°24' E 018°22'0 1.0
2017-May-17 11:30N 59°24' E 018°21'1 1.4
2017-May-17 11:00N 59°25' E 018°22'1 1.4
2017-May-17 10:30N 59°24' E 018°21'1 1.8
2017-May-17 10:00N 59°24' E 018°23'1 1.7
2017-May-17 09:30N 59°24' E 018°21'0 0.1
2017-May-17 09:00N 59°24' E 018°21'0 0.0
2017-May-17 08:30N 59°24' E 018°21'0 0.0
2017-May-17 08:00N 59°24' E 018°21'3 6.4
2017-May-17 07:28N 59°22' E 018°27'0 0.4
2017-May-17 07:00N 59°22' E 018°26'3 6.9
2017-May-17 06:31N 59°24' E 018°21'1 1.8
2017-May-17 06:00N 59°24' E 018°23'1 1.8
2017-May-17 05:31N 59°24' E 018°21'0 0.0
2017-May-17 05:00N 59°24' E 018°21'1 1.4
2017-May-17 04:30N 59°25' E 018°22'1 1.3
2017-May-17 04:00N 59°24' E 018°21'0 0.0
2017-May-17 03:30N 59°24' E 018°21'0 0.0
2017-May-17 03:00N 59°24' E 018°21'0 0.0
2017-May-17 02:30N 59°24' E 018°21'0 0.0
2017-May-17 02:00N 59°24' E 018°21'0 0.0
2017-May-17 01:30N 59°24' E 018°21'0 0.0
2017-May-17 01:00N 59°24' E 018°21'0 0.0
2017-May-17 00:30N 59°24' E 018°21'0 0.0
2017-May-17 00:00N 59°24' E 018°21'0 0.0
2017-May-16 23:30N 59°24' E 018°21'0 0.0
2017-May-16 23:00N 59°24' E 018°21'0 0.0
2017-May-16 22:30N 59°24' E 018°21'0 0.0
2017-May-16 22:00N 59°24' E 018°21'0 0.0
2017-May-16 21:30N 59°24' E 018°21'0 0.0
2017-May-16 21:00N 59°24' E 018°21'0 0.0
2017-May-16 20:30N 59°24' E 018°21'0 0.0
2017-May-16 20:00N 59°24' E 018°21'0 0.0
2017-May-16 19:30N 59°24' E 018°21'0 0.0
2017-May-16 19:00N 59°24' E 018°21'0 0.0
2017-May-16 18:30N 59°24' E 018°21'0 0.0
2017-May-16 18:00N 59°24' E 018°21'0 0.0
2017-May-16 17:30N 59°24' E 018°21'0 0.0
2017-May-16 17:00N 59°24' E 018°21'0 0.0
2017-May-16 16:30N 59°24' E 018°21'1 0.5
2017-May-16 15:15N 59°24' E 018°22'1 2.3
2017-May-16 15:00N 59°24' E 018°21'0 0.0
2017-May-16 14:00N 59°24' E 018°21'0 1.0
2017-May-16 13:30N 59°24' E 018°22'1 2.0
2017-May-16 13:01N 59°23' E 018°24'1 1.7
2017-May-16 12:24N 59°23' E 018°26'2 4.5
2017-May-16 12:00N 59°24' E 018°22'1 1.3
2017-May-16 11:30N 59°24' E 018°21'1 1.4
2017-May-16 11:00N 59°25' E 018°22'1 1.4
2017-May-16 10:30N 59°24' E 018°21'1 2.8
2017-May-16 10:00N 59°23' E 018°24'1 2.8
2017-May-16 09:30N 59°24' E 018°21'0 0.1
2017-May-16 09:00N 59°24' E 018°21'0 0.0
2017-May-16 08:30N 59°24' E 018°21'0 0.0
2017-May-16 07:59N 59°24' E 018°21'2 3.2
2017-May-16 07:30N 59°23' E 018°24'2 3.7
2017-May-16 06:57N 59°22' E 018°25'3 6.9
2017-May-16 06:30N 59°24' E 018°22'1 1.3
2017-May-16 06:00N 59°24' E 018°23'1 1.7
2017-May-16 05:30N 59°24' E 018°21'0 0.1
2017-May-16 05:00N 59°24' E 018°21'1 1.0
2017-May-16 04:30N 59°25' E 018°22'1 1.0
2017-May-16 04:00N 59°24' E 018°21'0 0.0
2017-May-16 03:30N 59°24' E 018°21'0 0.0
2017-May-16 03:00N 59°24' E 018°21'0 0.0
2017-May-16 02:30N 59°24' E 018°21'0 0.0
2017-May-16 02:00N 59°24' E 018°21'0 0.0
2017-May-16 01:30N 59°24' E 018°21'0 0.0
2017-May-16 01:00N 59°24' E 018°21'0 0.0
2017-May-16 00:30N 59°24' E 018°21'0 0.0
2017-May-16 00:00N 59°24' E 018°21'0 0.0
2017-May-15 23:30N 59°24' E 018°21'0 0.0
2017-May-15 23:00N 59°24' E 018°21'0 0.0
2017-May-15 22:30N 59°24' E 018°21'0 0.0
2017-May-15 22:00N 59°24' E 018°21'0 0.0
2017-May-15 21:30N 59°24' E 018°21'0 0.0
2017-May-15 21:00N 59°24' E 018°21'0 0.0
2017-May-15 20:30N 59°24' E 018°21'0 0.0
2017-May-15 20:00N 59°24' E 018°21'0 0.0
2017-May-15 19:30N 59°24' E 018°21'0 0.0
2017-May-15 19:00N 59°24' E 018°21'0 0.0
2017-May-15 18:30N 59°24' E 018°21'0 0.0
2017-May-15 18:00N 59°24' E 018°21'0 0.0
2017-May-15 17:30N 59°24' E 018°21'0 0.0
2017-May-15 17:00N 59°24' E 018°21'0 0.0
2017-May-15 16:30N 59°24' E 018°21'1 2.5
2017-May-15 15:59N 59°25' E 018°21'2 3.8
2017-May-15 15:30N 59°24' E 018°23'1 1.6
2017-May-15 15:00N 59°24' E 018°21'0 0.0
2017-May-15 14:00N 59°24' E 018°21'1 1.7
2017-May-15 13:30N 59°24' E 018°23'0 0.9
2017-May-15 13:00N 59°23' E 018°23'2 3.7
2017-May-15 12:25N 59°22' E 018°26'3 6.6
2017-May-15 12:00N 59°24' E 018°22'1 1.3
2017-May-15 11:30N 59°24' E 018°21'1 1.4
2017-May-15 11:00N 59°25' E 018°22'1 1.4
2017-May-15 10:30N 59°24' E 018°21'1 1.7
2017-May-15 10:00N 59°24' E 018°23'1 1.6
2017-May-15 09:30N 59°24' E 018°21'0 0.1
2017-May-15 09:00N 59°24' E 018°21'0 0.0
2017-May-15 08:30N 59°24' E 018°21'0 0.0
2017-May-15 08:00N 59°24' E 018°21'1 2.8
2017-May-15 07:30N 59°23' E 018°24'2 3.9
2017-May-15 06:57N 59°22' E 018°26'3 7.9
2017-May-15 06:30N 59°24' E 018°21'1 2.5
2017-May-15 06:00N 59°23' E 018°24'1 2.6
2017-May-15 05:30N 59°24' E 018°21'0 0.0
2017-May-15 05:00N 59°24' E 018°21'0 0.9
2017-May-15 04:30N 59°24' E 018°22'0 0.8
2017-May-15 04:00N 59°24' E 018°21'0 0.0
2017-May-15 03:31N 59°24' E 018°21'0 0.0
2017-May-15 03:00N 59°24' E 018°21'0 0.0
2017-May-15 02:30N 59°24' E 018°21'0 0.0
2017-May-15 02:01N 59°24' E 018°21'0 0.0
2017-May-15 01:30N 59°24' E 018°21'0 0.0
2017-May-15 01:00N 59°24' E 018°21'0 0.0
2017-May-15 00:30N 59°24' E 018°21'0 0.0
2017-May-15 00:00N 59°24' E 018°21'0 0.0
2017-May-14 23:31N 59°24' E 018°21'0 0.0
2017-May-14 23:00N 59°24' E 018°21'0 0.0
2017-May-14 22:31N 59°24' E 018°21'0 0.0
2017-May-14 22:00N 59°24' E 018°21'0 0.0
2017-May-14 21:30N 59°24' E 018°21'0 0.0
2017-May-14 21:01N 59°24' E 018°21'0 0.0
2017-May-14 20:30N 59°24' E 018°21'0 0.0
2017-May-14 20:00N 59°24' E 018°21'0 0.0
2017-May-14 19:30N 59°24' E 018°21'0 0.0
2017-May-14 19:00N 59°24' E 018°21'0 0.0
2017-May-14 18:30N 59°24' E 018°21'0 0.0
2017-May-14 18:00N 59°24' E 018°21'2 4.1
2017-May-14 17:29N 59°23' E 018°25'1 2.2
2017-May-14 16:52N 59°22' E 018°26'3 7.3
2017-May-14 16:30N 59°24' E 018°23'1 2.2
2017-May-14 16:01N 59°25' E 018°22'  

Dump ship's entire track history